sensor_id;sensor_type;location;lat;lon;timestamp;pressure;altitude;pressure_sealevel;temperature;humidity
76285;BME280;65096;50.998;7.098;2023-04-25T00:02:24;100400.03;;;7.22;55.27
76285;BME280;65096;50.998;7.098;2023-04-25T00:04:51;100395.66;;;7.17;55.02
76285;BME280;65096;50.998;7.098;2023-04-25T00:07:17;100394.78;;;7.16;55.47
76285;BME280;65096;50.998;7.098;2023-04-25T00:09:45;100401.66;;;7.17;55.13
76285;BME280;65096;50.998;7.098;2023-04-25T00:12:12;100398.19;;;7.14;55.22
76285;BME280;65096;50.998;7.098;2023-04-25T00:14:39;100398.97;;;7.10;54.94
76285;BME280;65096;50.998;7.098;2023-04-25T00:17:05;100398.94;;;7.07;55.52
76285;BME280;65096;50.998;7.098;2023-04-25T00:19:32;100394.63;;;7.04;55.03
76285;BME280;65096;50.998;7.098;2023-04-25T00:22:00;100391.16;;;7.01;55.52
76285;BME280;65096;50.998;7.098;2023-04-25T00:24:26;100398.78;;;6.98;55.83
76285;BME280;65096;50.998;7.098;2023-04-25T00:26:54;100403.84;;;6.93;55.90
76285;BME280;65096;50.998;7.098;2023-04-25T00:29:21;100398.72;;;6.93;55.50
76285;BME280;65096;50.998;7.098;2023-04-25T00:31:48;100398.66;;;6.89;55.35
76285;BME280;65096;50.998;7.098;2023-04-25T00:34:14;100402.88;;;6.85;55.68
76285;BME280;65096;50.998;7.098;2023-04-25T00:36:41;100401.09;;;6.83;55.80
76285;BME280;65096;50.998;7.098;2023-04-25T00:39:08;100399.44;;;6.85;55.64
76285;BME280;65096;50.998;7.098;2023-04-25T00:41:34;100402.00;;;6.85;55.30
76285;BME280;65096;50.998;7.098;2023-04-25T00:44:03;100405.34;;;6.81;55.53
76285;BME280;65096;50.998;7.098;2023-04-25T00:46:32;100401.03;;;6.78;56.00
76285;BME280;65096;50.998;7.098;2023-04-25T00:48:59;100403.56;;;6.77;55.95
76285;BME280;65096;50.998;7.098;2023-04-25T00:51:25;100398.41;;;6.74;56.04
76285;BME280;65096;50.998;7.098;2023-04-25T00:53:53;100401.72;;;6.70;55.89
76285;BME280;65096;50.998;7.098;2023-04-25T00:56:20;100401.66;;;6.65;55.71
76285;BME280;65096;50.998;7.098;2023-04-25T00:58:47;100403.28;;;6.62;55.56
76285;BME280;65096;50.998;7.098;2023-04-25T01:01:15;100403.28;;;6.62;56.25
76285;BME280;65096;50.998;7.098;2023-04-25T01:03:43;100404.06;;;6.56;56.26
76285;BME280;65096;50.998;7.098;2023-04-25T01:06:12;100400.59;;;6.53;56.05
76285;BME280;65096;50.998;7.098;2023-04-25T01:08:39;100399.66;;;6.49;55.99
76285;BME280;65096;50.998;7.098;2023-04-25T01:11:06;100393.59;;;6.44;55.84
76285;BME280;65096;50.998;7.098;2023-04-25T01:13:33;100399.56;;;6.43;56.28
76285;BME280;65096;50.998;7.098;2023-04-25T01:16:00;100406.31;;;6.40;56.08
76285;BME280;65096;50.998;7.098;2023-04-25T01:18:28;100399.47;;;6.37;56.01
76285;BME280;65096;50.998;7.098;2023-04-25T01:20:55;100395.97;;;6.33;56.49
76285;BME280;65096;50.998;7.098;2023-04-25T01:23:24;100402.81;;;6.34;56.34
76285;BME280;65096;50.998;7.098;2023-04-25T01:25:51;100409.59;;;6.31;56.64
76285;BME280;65096;50.998;7.098;2023-04-25T01:28:18;100412.03;;;6.26;56.77
76285;BME280;65096;50.998;7.098;2023-04-25T01:30:46;100409.44;;;6.23;56.72
76285;BME280;65096;50.998;7.098;2023-04-25T01:33:14;100409.44;;;6.23;56.57
76285;BME280;65096;50.998;7.098;2023-04-25T01:35:41;100404.28;;;6.22;56.83
76285;BME280;65096;50.998;7.098;2023-04-25T01:38:08;100406.00;;;6.21;56.80
76285;BME280;65096;50.998;7.098;2023-04-25T01:40:38;100408.59;;;6.23;57.07
76285;BME280;65096;50.998;7.098;2023-04-25T01:43:06;100408.59;;;6.23;56.67
76285;BME280;65096;50.998;7.098;2023-04-25T01:45:36;100398.94;;;6.11;56.80
76285;BME280;65096;50.998;7.098;2023-04-25T01:48:05;100411.03;;;6.18;57.37
76285;BME280;65096;50.998;7.098;2023-04-25T01:50:32;100415.38;;;6.21;56.89
76285;BME280;65096;50.998;7.098;2023-04-25T01:52:59;100411.91;;;6.19;57.39
76285;BME280;65096;50.998;7.098;2023-04-25T01:55:26;100417.91;;;6.19;57.57
76285;BME280;65096;50.998;7.098;2023-04-25T01:57:54;100411.88;;;6.17;57.15
76285;BME280;65096;50.998;7.098;2023-04-25T02:00:21;100421.19;;;6.15;57.16
76285;BME280;65096;50.998;7.098;2023-04-25T02:02:48;100427.25;;;6.19;56.89
76285;BME280;65096;50.998;7.098;2023-04-25T02:05:16;100427.25;;;6.19;57.31
76285;BME280;65096;50.998;7.098;2023-04-25T02:07:43;100419.47;;;6.14;57.27
76285;BME280;65096;50.998;7.098;2023-04-25T02:10:09;100416.94;;;6.16;57.37
76285;BME280;65096;50.998;7.098;2023-04-25T02:12:36;100418.53;;;6.11;57.52
76285;BME280;65096;50.998;7.098;2023-04-25T02:15:06;100421.13;;;6.12;57.61
76285;BME280;65096;50.998;7.098;2023-04-25T02:17:32;100429.59;;;6.08;57.78
76285;BME280;65096;50.998;7.098;2023-04-25T02:19:59;100424.41;;;6.05;57.88
76285;BME280;65096;50.998;7.098;2023-04-25T02:22:26;100424.41;;;6.05;57.55
76285;BME280;65096;50.998;7.098;2023-04-25T02:24:55;100420.94;;;6.02;58.07
76285;BME280;65096;50.998;7.098;2023-04-25T02:27:22;100422.69;;;6.04;57.98
76285;BME280;65096;50.998;7.098;2023-04-25T02:29:48;100423.44;;;5.99;58.02
76285;BME280;65096;50.998;7.098;2023-04-25T02:32:16;100422.56;;;5.98;57.95
76285;BME280;65096;50.998;7.098;2023-04-25T02:34:43;100421.69;;;5.98;58.02
76285;BME280;65096;50.998;7.098;2023-04-25T02:37:10;100422.53;;;5.97;57.90
76285;BME280;65096;50.998;7.098;2023-04-25T02:39:39;100424.22;;;5.96;58.03
76285;BME280;65096;50.998;7.098;2023-04-25T02:42:06;100429.31;;;5.95;57.61
76285;BME280;65096;50.998;7.098;2023-04-25T02:44:32;100431.00;;;5.94;58.04
76285;BME280;65096;50.998;7.098;2023-04-25T02:46:59;100438.72;;;5.96;58.00
76285;BME280;65096;50.998;7.098;2023-04-25T02:49:27;100427.59;;;5.94;57.88
76285;BME280;65096;50.998;7.098;2023-04-25T02:51:54;100422.47;;;5.94;58.44
76285;BME280;65096;50.998;7.098;2023-04-25T02:54:20;100433.63;;;5.96;58.27
76285;BME280;65096;50.998;7.098;2023-04-25T02:56:47;100426.69;;;5.92;58.53
76285;BME280;65096;50.998;7.098;2023-04-25T02:59:14;100419.91;;;5.94;58.65
76285;BME280;65096;50.998;7.098;2023-04-25T03:01:40;100425.81;;;5.91;58.23
76285;BME280;65096;50.998;7.098;2023-04-25T03:04:07;100427.53;;;5.91;58.51
76285;BME280;65096;50.998;7.098;2023-04-25T03:06:35;100427.41;;;5.86;58.89
76285;BME280;65096;50.998;7.098;2023-04-25T03:09:02;100422.28;;;5.86;59.03
76285;BME280;65096;50.998;7.098;2023-04-25T03:11:29;100426.50;;;5.83;58.75
76285;BME280;65096;50.998;7.098;2023-04-25T03:13:55;100420.56;;;5.85;59.22
76285;BME280;65096;50.998;7.098;2023-04-25T03:16:25;100417.16;;;5.85;59.00
76285;BME280;65096;50.998;7.098;2023-04-25T03:18:51;100417.00;;;5.77;59.60
76285;BME280;65096;50.998;7.098;2023-04-25T03:21:18;100419.66;;;5.82;58.71
76285;BME280;65096;50.998;7.098;2023-04-25T03:23:46;100424.84;;;5.86;59.00
76285;BME280;65096;50.998;7.098;2023-04-25T03:26:13;100420.59;;;5.87;59.32
76285;BME280;65096;50.998;7.098;2023-04-25T03:28:39;100421.47;;;5.87;59.15
76285;BME280;65096;50.998;7.098;2023-04-25T03:31:06;100430.88;;;5.88;59.03
76285;BME280;65096;50.998;7.098;2023-04-25T03:33:33;100409.38;;;5.80;58.73
76285;BME280;65096;50.998;7.098;2023-04-25T03:35:59;100428.31;;;5.88;58.83
76285;BME280;65096;50.998;7.098;2023-04-25T03:38:26;100431.78;;;5.90;58.91
76285;BME280;65096;50.998;7.098;2023-04-25T03:40:54;100428.41;;;5.93;59.35
76285;BME280;65096;50.998;7.098;2023-04-25T03:43:21;100434.41;;;5.93;59.27
76285;BME280;65096;50.998;7.098;2023-04-25T03:45:48;100431.81;;;5.92;59.22
76285;BME280;65096;50.998;7.098;2023-04-25T03:48:15;100426.72;;;5.93;58.97
76285;BME280;65096;50.998;7.098;2023-04-25T03:50:41;100430.13;;;5.92;58.61
76285;BME280;65096;50.998;7.098;2023-04-25T03:53:08;100431.06;;;5.96;59.08
76285;BME280;65096;50.998;7.098;2023-04-25T03:55:35;100430.94;;;5.91;58.58
76285;BME280;65096;50.998;7.098;2023-04-25T03:58:03;100437.00;;;5.96;59.04
76285;BME280;65096;50.998;7.098;2023-04-25T04:00:30;100439.63;;;5.99;58.94
76285;BME280;65096;50.998;7.098;2023-04-25T04:02:56;100428.56;;;5.99;59.11
76285;BME280;65096;50.998;7.098;2023-04-25T04:05:23;100438.78;;;5.99;59.30
76285;BME280;65096;50.998;7.098;2023-04-25T04:07:50;100443.03;;;5.98;59.07
76285;BME280;65096;50.998;7.098;2023-04-25T04:10:16;100451.59;;;5.99;59.00
76285;BME280;65096;50.998;7.098;2023-04-25T04:12:43;100449.88;;;5.99;59.38
76285;BME280;65096;50.998;7.098;2023-04-25T04:15:12;100450.72;;;5.98;59.03
76285;BME280;65096;50.998;7.098;2023-04-25T04:17:38;100449.88;;;5.99;59.27
76285;BME280;65096;50.998;7.098;2023-04-25T04:20:06;100455.84;;;6.00;59.25
76285;BME280;65096;50.998;7.098;2023-04-25T04:22:34;100450.69;;;5.97;59.42
76285;BME280;65096;50.998;7.098;2023-04-25T04:25:01;100449.81;;;5.96;59.55
76285;BME280;65096;50.998;7.098;2023-04-25T04:27:30;100454.16;;;5.99;59.23
76285;BME280;65096;50.998;7.098;2023-04-25T04:29:56;100452.41;;;5.98;59.65
76285;BME280;65096;50.998;7.098;2023-04-25T04:32:24;100454.94;;;5.96;59.88
76285;BME280;65096;50.998;7.098;2023-04-25T04:34:52;100456.72;;;5.99;59.80
76285;BME280;65096;50.998;7.098;2023-04-25T04:37:20;100459.13;;;5.93;59.93
76285;BME280;65096;50.998;7.098;2023-04-25T04:39:47;100464.25;;;5.94;59.98
76285;BME280;65096;50.998;7.098;2023-04-25T04:42:13;100461.78;;;5.97;59.84
76285;BME280;65096;50.998;7.098;2023-04-25T04:44:40;100474.66;;;6.00;60.10
76285;BME280;65096;50.998;7.098;2023-04-25T04:47:09;100468.69;;;6.01;60.00
76285;BME280;65096;50.998;7.098;2023-04-25T04:49:40;100469.47;;;5.97;60.40
76285;BME280;65096;50.998;7.098;2023-04-25T04:52:07;100477.28;;;6.03;60.50
76285;BME280;65096;50.998;7.098;2023-04-25T04:54:34;100475.50;;;6.01;60.12
76285;BME280;65096;50.998;7.098;2023-04-25T04:57:01;100485.88;;;6.07;60.04
76285;BME280;65096;50.998;7.098;2023-04-25T04:59:28;100484.19;;;6.09;60.30
76285;BME280;65096;50.998;7.098;2023-04-25T05:01:54;100487.59;;;6.08;60.37
76285;BME280;65096;50.998;7.098;2023-04-25T05:04:21;100488.47;;;6.08;60.55
76285;BME280;65096;50.998;7.098;2023-04-25T05:06:49;100495.38;;;6.12;60.05
76285;BME280;65096;50.998;7.098;2023-04-25T05:09:16;100503.00;;;6.11;60.99
76285;BME280;65096;50.998;7.098;2023-04-25T05:11:44;100508.19;;;6.14;60.41
76285;BME280;65096;50.998;7.098;2023-04-25T05:14:11;100502.16;;;6.12;60.41
76285;BME280;65096;50.998;7.098;2023-04-25T05:16:37;100505.69;;;6.17;59.80
76285;BME280;65096;50.998;7.098;2023-04-25T05:19:04;100509.16;;;6.17;60.37
76285;BME280;65096;50.998;7.098;2023-04-25T05:21:30;100512.41;;;6.12;60.93
76285;BME280;65096;50.998;7.098;2023-04-25T05:23:59;100515.09;;;6.16;61.27
76285;BME280;65096;50.998;7.098;2023-04-25T05:26:25;100517.66;;;6.16;61.21
76285;BME280;65096;50.998;7.098;2023-04-25T05:28:56;100518.47;;;6.15;61.24
76285;BME280;65096;50.998;7.098;2023-04-25T05:31:22;100519.34;;;6.16;61.09
76285;BME280;65096;50.998;7.098;2023-04-25T05:33:49;100520.28;;;6.18;61.20
76285;BME280;65096;50.998;7.098;2023-04-25T05:36:16;100532.34;;;6.25;60.96
76285;BME280;65096;50.998;7.098;2023-04-25T05:38:42;100533.28;;;6.28;60.52
76285;BME280;65096;50.998;7.098;2023-04-25T05:41:10;100534.06;;;6.24;61.23
76285;BME280;65096;50.998;7.098;2023-04-25T05:43:37;100540.91;;;6.25;61.60
76285;BME280;65096;50.998;7.098;2023-04-25T05:46:04;100537.66;;;6.33;60.67
76285;BME280;65096;50.998;7.098;2023-04-25T05:48:31;100536.69;;;6.27;61.02
76285;BME280;65096;50.998;7.098;2023-04-25T05:50:58;100543.50;;;6.27;61.16
76285;BME280;65096;50.998;7.098;2023-04-25T05:53:25;100547.97;;;6.36;60.81
76285;BME280;65096;50.998;7.098;2023-04-25T05:55:52;100556.59;;;6.41;61.01
76285;BME280;65096;50.998;7.098;2023-04-25T05:58:20;100553.19;;;6.42;61.00
76285;BME280;65096;50.998;7.098;2023-04-25T06:00:47;100553.31;;;6.48;61.25
76285;BME280;65096;50.998;7.098;2023-04-25T06:03:14;100554.22;;;6.50;60.84
76285;BME280;65096;50.998;7.098;2023-04-25T06:05:41;100548.44;;;6.58;60.25
76285;BME280;65096;50.998;7.098;2023-04-25T06:08:08;100563.84;;;6.61;60.80
76285;BME280;65096;50.998;7.098;2023-04-25T06:10:35;100556.94;;;6.59;60.40
76285;BME280;65096;50.998;7.098;2023-04-25T06:13:02;100566.25;;;6.54;60.42
76285;BME280;65096;50.998;7.098;2023-04-25T06:15:30;100572.34;;;6.60;59.86
76285;BME280;65096;50.998;7.098;2023-04-25T06:17:57;100570.00;;;6.69;59.49
76285;BME280;65096;50.998;7.098;2023-04-25T06:20:24;100581.31;;;6.80;59.75
76285;BME280;65096;50.998;7.098;2023-04-25T06:22:51;100578.59;;;6.73;60.39
76285;BME280;65096;50.998;7.098;2023-04-25T06:25:18;100577.59;;;6.65;59.70
76285;BME280;65096;50.998;7.098;2023-04-25T06:27:45;100577.81;;;6.77;59.87
76285;BME280;65096;50.998;7.098;2023-04-25T06:30:12;100571.97;;;6.82;59.83
76285;BME280;65096;50.998;7.098;2023-04-25T06:32:40;100568.63;;;6.88;59.43
76285;BME280;65096;50.998;7.098;2023-04-25T06:35:07;100564.38;;;6.88;59.30
76285;BME280;65096;50.998;7.098;2023-04-25T06:37:35;100568.69;;;6.91;59.23
76285;BME280;65096;50.998;7.098;2023-04-25T06:40:02;100569.63;;;6.94;58.59
76285;BME280;65096;50.998;7.098;2023-04-25T06:42:29;100565.38;;;6.96;58.56
76285;BME280;65096;50.998;7.098;2023-04-25T06:44:55;100562.97;;;7.04;58.38
76285;BME280;65096;50.998;7.098;2023-04-25T06:47:22;100567.22;;;7.05;57.87
76285;BME280;65096;50.998;7.098;2023-04-25T06:49:50;100566.53;;;7.13;58.29
76285;BME280;65096;50.998;7.098;2023-04-25T06:52:17;100569.09;;;7.12;57.86
76285;BME280;65096;50.998;7.098;2023-04-25T06:54:44;100561.50;;;7.18;57.76
76285;BME280;65096;50.998;7.098;2023-04-25T06:57:11;100563.38;;;7.28;56.97
76285;BME280;65096;50.998;7.098;2023-04-25T06:59:38;100572.03;;;7.33;56.72
76285;BME280;65096;50.998;7.098;2023-04-25T07:02:05;100576.34;;;7.35;56.21
76285;BME280;65096;50.998;7.098;2023-04-25T07:04:32;100582.28;;;7.33;57.00
76285;BME280;65096;50.998;7.098;2023-04-25T07:07:00;100585.69;;;7.32;56.74
76285;BME280;65096;50.998;7.098;2023-04-25T07:09:28;100583.00;;;7.26;56.58
76285;BME280;65096;50.998;7.098;2023-04-25T07:11:54;100586.50;;;7.29;57.05
76285;BME280;65096;50.998;7.098;2023-04-25T07:14:22;100594.34;;;7.38;56.45
76285;BME280;65096;50.998;7.098;2023-04-25T07:16:48;100593.59;;;7.44;56.09
76285;BME280;65096;50.998;7.098;2023-04-25T07:19:15;100600.34;;;7.39;56.06
76285;BME280;65096;50.998;7.098;2023-04-25T07:21:41;100596.22;;;7.47;55.97
76285;BME280;65096;50.998;7.098;2023-04-25T07:24:09;100600.53;;;7.49;56.13
76285;BME280;65096;50.998;7.098;2023-04-25T07:26:36;100596.28;;;7.51;55.57
76285;BME280;65096;50.998;7.098;2023-04-25T07:29:02;100597.19;;;7.53;56.70
76285;BME280;65096;50.998;7.098;2023-04-25T07:31:29;100607.66;;;7.65;56.58
76285;BME280;65096;50.998;7.098;2023-04-25T07:33:56;100605.16;;;7.70;55.17
76285;BME280;65096;50.998;7.098;2023-04-25T07:36:22;100606.84;;;7.68;55.76
76285;BME280;65096;50.998;7.098;2023-04-25T07:38:49;100603.66;;;7.81;55.49
76285;BME280;65096;50.998;7.098;2023-04-25T07:41:17;100606.22;;;7.80;54.90
76285;BME280;65096;50.998;7.098;2023-04-25T07:43:44;100608.69;;;7.73;54.66
76285;BME280;65096;50.998;7.098;2023-04-25T07:46:10;100611.28;;;7.77;54.50
76285;BME280;65096;50.998;7.098;2023-04-25T07:48:37;100613.69;;;7.69;53.49
76285;BME280;65096;50.998;7.098;2023-04-25T07:51:04;100621.50;;;7.73;54.50
76285;BME280;65096;50.998;7.098;2023-04-25T07:53:31;100619.94;;;7.82;54.87
76285;BME280;65096;50.998;7.098;2023-04-25T07:55:57;100619.16;;;7.87;54.48
76285;BME280;65096;50.998;7.098;2023-04-25T07:58:25;100618.28;;;7.88;53.80
76285;BME280;65096;50.998;7.098;2023-04-25T08:00:52;100630.31;;;7.89;53.48
76285;BME280;65096;50.998;7.098;2023-04-25T08:03:19;100628.66;;;7.93;52.36
76285;BME280;65096;50.998;7.098;2023-04-25T08:05:46;100616.88;;;8.05;52.70
76285;BME280;65096;50.998;7.098;2023-04-25T08:08:13;100628.94;;;8.11;52.48
76285;BME280;65096;50.998;7.098;2023-04-25T08:10:41;100635.97;;;8.24;51.22
76285;BME280;65096;50.998;7.098;2023-04-25T08:13:08;100641.28;;;8.34;51.13
76285;BME280;65096;50.998;7.098;2023-04-25T08:15:36;100640.66;;;8.50;50.35
76285;BME280;65096;50.998;7.098;2023-04-25T08:18:03;100642.53;;;8.65;50.63
76285;BME280;65096;50.998;7.098;2023-04-25T08:20:30;100646.16;;;8.79;49.57
76285;BME280;65096;50.998;7.098;2023-04-25T08:22:56;100643.63;;;8.82;49.09
76285;BME280;65096;50.998;7.098;2023-04-25T08:25:23;100653.06;;;8.84;49.80
76285;BME280;65096;50.998;7.098;2023-04-25T08:27:50;100651.41;;;8.88;50.77
76285;BME280;65096;50.998;7.098;2023-04-25T08:30:16;100658.09;;;8.72;50.45
76285;BME280;65096;50.998;7.098;2023-04-25T08:32:45;100663.16;;;8.68;49.86
76285;BME280;65096;50.998;7.098;2023-04-25T08:35:12;100675.16;;;8.67;48.91
76285;BME280;65096;50.998;7.098;2023-04-25T08:37:39;100678.69;;;8.77;50.67
76285;BME280;65096;50.998;7.098;2023-04-25T08:40:06;100678.66;;;8.72;48.84
76285;BME280;65096;50.998;7.098;2023-04-25T08:42:37;100678.63;;;8.71;48.44
76285;BME280;65096;50.998;7.098;2023-04-25T08:45:05;100687.75;;;8.51;49.17
76285;BME280;65096;50.998;7.098;2023-04-25T08:47:33;100687.66;;;8.43;49.06
76285;BME280;65096;50.998;7.098;2023-04-25T08:50:03;100694.63;;;8.52;49.40
76285;BME280;65096;50.998;7.098;2023-04-25T08:52:36;100699.81;;;8.53;48.86
76285;BME280;65096;50.998;7.098;2023-04-25T08:55:03;100710.91;;;8.52;48.05
76285;BME280;65096;50.998;7.098;2023-04-25T08:57:31;100705.91;;;8.61;49.18
76285;BME280;65096;50.998;7.098;2023-04-25T08:59:58;100709.31;;;8.60;49.41
76285;BME280;65096;50.998;7.098;2023-04-25T09:02:26;100716.03;;;8.52;49.08
76285;BME280;65096;50.998;7.098;2023-04-25T09:04:54;100716.88;;;8.50;48.09
76285;BME280;65096;50.998;7.098;2023-04-25T09:07:22;100719.56;;;8.59;49.91
76285;BME280;65096;50.998;7.098;2023-04-25T09:09:51;100714.09;;;8.36;47.97
76285;BME280;65096;50.998;7.098;2023-04-25T09:12:18;100731.50;;;8.55;48.94
76285;BME280;65096;50.998;7.098;2023-04-25T09:15:01;100737.56;;;8.59;49.33
76285;BME280;65096;50.998;7.098;2023-04-25T09:17:28;100738.44;;;8.61;50.69
76285;BME280;65096;50.998;7.098;2023-04-25T09:19:55;100744.72;;;8.79;49.88
76285;BME280;65096;50.998;7.098;2023-04-25T09:22:32;100739.78;;;8.94;49.73
76285;BME280;65096;50.998;7.098;2023-04-25T09:25:02;100738.19;;;9.02;47.42
76285;BME280;65096;50.998;7.098;2023-04-25T09:27:29;100743.56;;;9.17;48.92
76285;BME280;65096;50.998;7.098;2023-04-25T09:29:57;100734.22;;;9.24;46.70
76285;BME280;65096;50.998;7.098;2023-04-25T09:32:24;100741.09;;;9.27;45.23
76285;BME280;65096;50.998;7.098;2023-04-25T09:34:53;100747.16;;;9.32;48.16
76285;BME280;65096;50.998;7.098;2023-04-25T09:37:21;100745.50;;;9.37;47.64
76285;BME280;65096;50.998;7.098;2023-04-25T09:39:50;100749.66;;;9.24;47.24
76285;BME280;65096;50.998;7.098;2023-04-25T09:42:17;100758.94;;;9.14;45.94
76285;BME280;65096;50.998;7.098;2023-04-25T09:44:45;100752.16;;;9.19;47.95
76285;BME280;65096;50.998;7.098;2023-04-25T09:47:14;100753.97;;;9.28;48.05
76285;BME280;65096;50.998;7.098;2023-04-25T09:49:42;100760.88;;;9.32;47.73
76285;BME280;65096;50.998;7.098;2023-04-25T09:52:13;100759.31;;;9.43;47.51
76285;BME280;65096;50.998;7.098;2023-04-25T09:54:40;100766.41;;;9.64;47.08
76285;BME280;65096;50.998;7.098;2023-04-25T09:57:11;100757.25;;;9.91;47.03
76285;BME280;65096;50.998;7.098;2023-04-25T09:59:39;100757.25;;;9.91;45.27
76285;BME280;65096;50.998;7.098;2023-04-25T10:02:09;100747.81;;;9.93;45.79
76285;BME280;65096;50.998;7.098;2023-04-25T10:04:37;100753.88;;;9.97;45.94
76285;BME280;65096;50.998;7.098;2023-04-25T10:07:06;100761.59;;;9.95;44.20
76285;BME280;65096;50.998;7.098;2023-04-25T10:09:36;100758.25;;;10.05;45.69
76285;BME280;65096;50.998;7.098;2023-04-25T10:12:05;100766.78;;;10.01;45.45
76285;BME280;65096;50.998;7.098;2023-04-25T10:14:34;100764.19;;;9.97;43.84
76285;BME280;65096;50.998;7.098;2023-04-25T10:17:01;100762.44;;;9.93;41.52
76285;BME280;65096;50.998;7.098;2023-04-25T10:19:28;100777.16;;;10.07;43.30
76285;BME280;65096;50.998;7.098;2023-04-25T10:22:02;100778.03;;;10.08;41.99
76285;BME280;65096;50.998;7.098;2023-04-25T10:24:30;100772.78;;;9.99;43.29
76285;BME280;65096;50.998;7.098;2023-04-25T10:26:57;100771.97;;;10.06;41.91
76285;BME280;65096;50.998;7.098;2023-04-25T10:29:25;100766.03;;;10.11;42.78
76285;BME280;65096;50.998;7.098;2023-04-25T10:31:53;100763.72;;;10.38;43.53
76285;BME280;65096;50.998;7.098;2023-04-25T10:34:24;100763.03;;;10.63;40.71
76285;BME280;65096;50.998;7.098;2023-04-25T10:36:52;100771.03;;;11.01;39.85
76285;BME280;65096;50.998;7.098;2023-04-25T10:39:25;100768.47;;;11.06;38.86
76285;BME280;65096;50.998;7.098;2023-04-25T10:41:55;100779.66;;;11.06;38.13
76285;BME280;65096;50.998;7.098;2023-04-25T10:44:22;100784.66;;;10.76;36.96
76285;BME280;65096;50.998;7.098;2023-04-25T10:46:49;100783.00;;;10.87;41.55
76285;BME280;65096;50.998;7.098;2023-04-25T10:49:30;100793.25;;;10.81;40.63
76285;BME280;65096;50.998;7.098;2023-04-25T10:52:14;100796.63;;;10.71;39.18
76285;BME280;65096;50.998;7.098;2023-04-25T10:54:42;100782.84;;;10.68;41.20
76285;BME280;65096;50.998;7.098;2023-04-25T10:57:26;100797.41;;;10.61;39.26
76285;BME280;65096;50.998;7.098;2023-04-25T10:59:54;100796.53;;;10.59;38.67
76285;BME280;65096;50.998;7.098;2023-04-25T11:02:21;100792.28;;;10.64;41.42
76285;BME280;65096;50.998;7.098;2023-04-25T11:04:53;100797.41;;;10.58;41.40
76285;BME280;65096;50.998;7.098;2023-04-25T11:07:33;100793.94;;;10.56;40.74
76285;BME280;65096;50.998;7.098;2023-04-25T11:10:03;100800.03;;;10.69;41.92
76285;BME280;65096;50.998;7.098;2023-04-25T11:12:30;100794.06;;;10.70;41.80
76285;BME280;65096;50.998;7.098;2023-04-25T11:15:02;100783.75;;;10.71;39.91
76285;BME280;65096;50.998;7.098;2023-04-25T11:17:29;100784.66;;;10.76;38.97
76285;BME280;65096;50.998;7.098;2023-04-25T11:19:58;100788.16;;;10.86;41.09
76285;BME280;65096;50.998;7.098;2023-04-25T11:22:26;100790.78;;;10.98;41.01
76285;BME280;65096;50.998;7.098;2023-04-25T11:24:53;100788.19;;;10.92;39.23
76285;BME280;65096;50.998;7.098;2023-04-25T11:27:20;100783.03;;;10.95;41.00
76285;BME280;65096;50.998;7.098;2023-04-25T11:29:47;100789.09;;;10.98;40.75
76285;BME280;65096;50.998;7.098;2023-04-25T11:32:15;100794.22;;;10.95;40.23
76285;BME280;65096;50.998;7.098;2023-04-25T11:34:43;100795.03;;;10.87;38.39
76285;BME280;65096;50.998;7.098;2023-04-25T11:37:11;100789.00;;;10.86;39.70
76285;BME280;65096;50.998;7.098;2023-04-25T11:39:42;100791.56;;;10.86;39.52
76285;BME280;65096;50.998;7.098;2023-04-25T11:42:09;100793.38;;;10.98;39.53
76285;BME280;65096;50.998;7.098;2023-04-25T11:44:37;100795.16;;;11.08;39.72
76285;BME280;65096;50.998;7.098;2023-04-25T11:47:04;100786.63;;;11.21;37.56
76285;BME280;65096;50.998;7.098;2023-04-25T11:49:31;100790.13;;;11.30;38.53
76285;BME280;65096;50.998;7.098;2023-04-25T11:51:57;100791.81;;;11.30;36.74
76285;BME280;65096;50.998;7.098;2023-04-25T11:54:25;100786.69;;;11.39;37.72
76285;BME280;65096;50.998;7.098;2023-04-25T11:56:52;100794.44;;;11.42;36.61
76285;BME280;65096;50.998;7.098;2023-04-25T11:59:23;100792.75;;;11.45;36.25
76285;BME280;65096;50.998;7.098;2023-04-25T12:01:50;100791.03;;;11.47;36.24
76285;BME280;65096;50.998;7.098;2023-04-25T12:04:18;100789.41;;;11.67;36.78
76285;BME280;65096;50.998;7.098;2023-04-25T12:06:45;100795.50;;;11.90;36.29
76285;BME280;65096;50.998;7.098;2023-04-25T12:09:14;100792.97;;;12.18;35.19
76285;BME280;65096;50.998;7.098;2023-04-25T12:11:43;100793.00;;;12.54;33.87
76285;BME280;65096;50.998;7.098;2023-04-25T12:14:10;100773.09;;;13.07;31.16
76285;BME280;65096;50.998;7.098;2023-04-25T12:16:41;100757.56;;;13.13;32.81
76285;BME280;65096;50.998;7.098;2023-04-25T12:19:08;100791.94;;;13.53;33.13
76285;BME280;65096;50.998;7.098;2023-04-25T12:21:34;100784.94;;;13.73;30.73
76285;BME280;65096;50.998;7.098;2023-04-25T12:24:12;100785.72;;;13.90;31.23
76285;BME280;65096;50.998;7.098;2023-04-25T12:26:52;100783.75;;;14.23;32.01
76285;BME280;65096;50.998;7.098;2023-04-25T12:29:21;100788.94;;;14.26;28.73
76285;BME280;65096;50.998;7.098;2023-04-25T12:31:48;100780.28;;;14.24;29.31
76285;BME280;65096;50.998;7.098;2023-04-25T12:34:15;100799.19;;;14.38;28.83
76285;BME280;65096;50.998;7.098;2023-04-25T12:36:42;100799.28;;;14.29;29.42
76285;BME280;65096;50.998;7.098;2023-04-25T12:39:09;100794.16;;;14.22;30.78
76285;BME280;65096;50.998;7.098;2023-04-25T12:41:40;100814.88;;;14.20;29.36
76285;BME280;65096;50.998;7.098;2023-04-25T12:44:08;100808.81;;;14.26;30.82
76285;BME280;65096;50.998;7.098;2023-04-25T12:46:35;100818.28;;;14.31;29.30
76285;BME280;65096;50.998;7.098;2023-04-25T12:49:03;100812.22;;;14.32;30.48
76285;BME280;65096;50.998;7.098;2023-04-25T12:51:30;100814.84;;;14.29;31.29
76285;BME280;65096;50.998;7.098;2023-04-25T12:53:58;100814.97;;;14.08;31.47
76285;BME280;65096;50.998;7.098;2023-04-25T12:56:25;100809.81;;;14.04;30.88
76285;BME280;65096;50.998;7.098;2023-04-25T12:58:52;100830.66;;;13.87;30.10
76285;BME280;65096;50.998;7.098;2023-04-25T13:01:20;100841.88;;;13.89;32.16